Edwards Creek Valley, Nevada Weather observations

Data are for observation ending at time listed.
 Day   Time    Ave.   Ave.  Ave.  Vector   Max.   Stn.    Total    Solar   Ave.  
  of    of     Air    Rel.  Wind   Wind    Wind   Baro.  Precip.   Rad.    Soil  
Year   Day     Temp.  Hum.  Speed  Dir.    Gust   Pres.                    Temp. 
2014   (PST)    F      %     mph   deg.    mph     mb.     in.     W/m2     F   
------------------------------------------------------------------------------
 273   17:30   58.8    32    4.5   283      7.1    842     0.00       8     61.9
 273   17:40   57.7    34    3.5   291      4.8    842     0.00       4     61.6
 273   17:50   57.1    35    2.1   285      2.7    842     0.00       1     61.3
 273   18:00   56.5    36    1.6   256      3.4    842     0.00       0     61.0
 273   18:10   57.0    36    2.2   266      5.7    842     0.00       0     60.7
 273   18:20   55.4    40    3.8   284      5.3    842     0.00       0     60.4
 273   18:30   54.0    44    4.2   308      8.2    843     0.00       0     60.1
 273   18:40   54.1    50    5.4   337     10.2    842     0.00       0     59.9
 273   18:50   54.4    53    7.0     5      9.6    842     0.00       0     59.6
 273   19:00   54.5    54    7.9   358     11.5    844     0.00       0     59.4
 273   19:10   54.8    53   10.8   358     15.3    844     0.00       0     59.2
 273   19:20   54.0    54    7.0   353      9.8    844     0.00       0     59.0
 273   19:30   53.2    55    6.1    12      9.0    844     0.00       0     58.8
 273   19:40   52.0    58    4.6    34      5.8    844     0.00       0     58.6
 273   19:50   51.0    60    3.1    36      5.2    844     0.00       0     58.4
 273   20:00   50.7    61    3.8    85      6.5    844     0.00       0     58.1
 273   20:10   49.0    65    5.9   111      7.4    844     0.00       0     57.9
 273   20:20   49.5    64    5.3    95      7.5    844     0.00       0     57.7
 273   20:30   49.5    63    5.3    85      7.7    844     0.00       0     57.5
 273   20:40   49.2    64    5.4    74      6.9    844     0.00       0     57.3
 273   20:50   49.0    63    6.0    74      7.7    844     0.00       0     57.1
 273   21:00   49.0    62    5.9    74      8.1    844     0.00       0     56.8
 273   21:10   48.3    62    6.4    64      8.8    844     0.00       0     56.6
 273   21:20   49.0    59    9.2    53     12.5    844     0.00       0     56.4
 273   21:30   48.5    59    7.5    44     11.4    844     0.00       0     56.2
 273   21:40   47.1    62    5.5    21      8.2    844     0.00       0     56.0
 273   21:50   46.7    63    6.1    37      9.0    845     0.00       0     55.8
 273   22:00   47.4    59    8.6    38     11.0    845     0.00       0     55.6
 273   22:10   47.3    58    8.8    30     11.4    845     0.00       0     55.4
 273   22:20   46.7    58    7.8    25     11.3    845     0.00       0     55.2
 273   22:30   46.2    59    6.4    31      8.2    845     0.00       0     55.0
 273   22:40   46.2    60    5.2    22      6.6    845     0.00       0     54.8
 273   22:50   44.2    65    4.3    89      6.4    845     0.00       0     54.6
 273   23:00   43.1    69    5.7   108      7.8    845     0.00       0     54.4
 273   23:10   45.1    64    5.7    77      8.6    846     0.00       0     54.2
 273   23:20   45.6    62    5.4    59      9.1    846     0.00       0     54.0
 273   23:30   45.0    64    5.4    84      7.1    846     0.00       0     53.9
 273   23:40   44.0    66    4.7    98      5.8    846     0.00       0     53.7
 273   23:50   43.7    67    3.0    79      5.8    846     0.00       0     53.5
 274    0:00   42.6    68    1.2   275      2.6    846     0.00       0     53.3
 274    0:10   41.7    70    2.3   255      3.4    846     0.00       0     53.1
 274    0:20   40.5    72    1.8   235      2.6    845     0.00       0     53.0
 274    0:30   40.8    71    1.6   257      3.1    846     0.00       0     52.8
 274    0:40   38.3    74    1.7   220      2.9    846     0.00       0     52.5
 274    0:50   39.1    75    1.0   266      1.8    846     0.00       0     52.3
 274    1:00   39.8    73    1.9   308      2.5    846     0.00       0     52.1
 274    1:10   38.8    74    1.4   229      5.0    846     0.00       0     52.0
 274    1:20   38.2    76    3.2   148      4.6    845     0.00       0     51.8
 274    1:30   37.6    78    3.3   174      3.8    845     0.00       0     51.6
 274    1:40   36.4    79    4.3   171      5.0    846     0.00       0     51.4
 274    1:50   35.6    83    4.7   163      5.5    846     0.00       0     51.2
 274    2:00   36.2    83    4.5   161      5.3    846     0.00       0     51.0
 274    2:10   35.5    82    2.4   189      4.5    846     0.00       0     50.8
 274    2:20   35.0    85    2.8   164      3.7    846     0.00       0     50.6
 274    2:30   35.6    84    4.6   164      5.6    845     0.00       0     50.4
 274    2:40   36.2    83    4.3   149      5.2    845     0.00       0     50.2
 274    2:50   36.4    82    3.8   148      5.0    845     0.00       0     50.1
 274    3:00   35.7    82    1.7   166      3.7    845     0.00       0     49.9
 274    3:10   36.0    83    4.3   157      5.8    845     0.00       0     49.7
 274    3:20   36.2    81    2.9   176      5.4    845     0.00       0     49.6
 274    3:30   34.6    83    1.4   220      2.6    845     0.00       0     49.4
 274    3:40   35.1    83    1.2   237      2.4    846     0.00       0     49.3
 274    3:50   35.4    82    0.3   149      2.0    846     0.00       0     49.1
 274    4:00   34.9    83    1.8   156      3.2    846     0.00       0     48.9
 274    4:10   34.2    82    1.3   123      3.8    846     0.00       0     48.7
 274    4:20   33.5    83    0.2   128      1.8    846     0.00       0     48.6
 274    4:30   33.5    84    0.9   172      1.9    846     0.00       0     48.4
 274    4:40   34.2    84    0.6   212      2.1    846     0.00       0     48.2
 274    4:50   34.0    83    2.5   137      4.3    846     0.00       0     48.1
 274    5:00   33.8    81    1.8   230      3.8    846     0.00       0     47.9
 274    5:10   32.7    84    0.9   170      2.3    846     0.00       0     47.7
 274    5:20   33.0    84    3.9   139      5.4    846     0.00       0     47.5
 274    5:30   34.0    83    4.0   144      4.8    846     0.00       0     47.4
 274    5:40   35.5    80    3.0   139      4.7    846     0.00       1     47.2
 274    5:50   35.6    78    1.4   146      2.3    847     0.00       4     47.1
 274    6:00   35.8    78    2.4   136      3.1    846     0.00       8     46.9
 274    6:10   34.7    78    2.2   148      3.1    846     0.00      15     46.9
 274    6:20   35.4    78    3.0   172      3.7    847     0.00      53     46.7
 274    6:30   36.9    78    0.3   210      1.1    847     0.00      87     46.6
 274    6:40   38.5    77    0.5   316      1.3    847     0.00     123     46.5
 274    6:50   39.0    77    0.8   355      2.1    847     0.00     156     46.5
 274    7:00   39.8    75    0.7   353      1.8    847     0.00     187     46.6
 274    7:10   41.8    70    0.3    18      1.1    848     0.00     219     46.8
 274    7:20   43.9    66    1.4    84      2.2    847     0.00     251     46.9
 274    7:30   45.0    63    2.1    87      3.3    848     0.00     284     47.1
 274    7:40   45.6    61    2.4    74      3.7    848     0.00     318     47.4
 274    7:50   46.5    58    2.2   107      4.3    848     0.00     351     47.7
 274    8:00   47.3    54    2.4    75      4.6    848     0.00     383     48.1
 274    8:10   47.4    53    2.8    42      5.8    848     0.00     415     48.6
 274    8:20   47.7    51    2.3    44      5.4    848     0.00     447     49.1
 274    8:30   48.4    50    3.1    74      8.2    848     0.00     476     49.7
 274    8:40   48.5    49    4.0    56      8.2    848     0.00     505     50.3
 274    8:50   48.7    48    5.0    22      9.2    848     0.00     533     51.0
 274    9:00   48.7    48    5.2    36      8.3    849     0.00     560     51.6
 274    9:10   49.4    45    5.9    42      9.8    849     0.00     584     52.2
 274    9:20   49.8    44    5.3    38     10.2    848     0.00     608     52.8
 274    9:30   50.3    42    5.1    41      8.1    849     0.00     629     53.4
 274    9:40   51.3    38    6.1    36     12.6    849     0.00     648     53.9
 274    9:50   51.2    35    4.8    41     10.2    849     0.00     666     54.5
 274   10:00   51.6    35    5.5    46      9.3    848     0.00     683     55.1
 274   10:10   51.6    37    5.0    32     11.5    849     0.00     698     55.6
 274   10:20   52.1    37    4.0    75     11.9    849     0.00     713     56.2
 274   10:30   52.3    37    5.3    43     10.0    849     0.00     726     56.4
 274   10:40   53.2    35    6.0    34     12.1    849     0.00     738     56.4
 274   10:50   52.9    35    6.2    17     12.3    849     0.00     748     56.2
 274   11:00   53.1    35    4.7   343     11.0    849     0.00     757     56.1
 274   11:10   53.4    34    7.3    44     13.9    849     0.00     764     55.9
 274   11:20   53.4    33    7.1    33     12.2    849     0.00     768     55.7
 274   11:30   53.3    33    4.8    56     11.2    849     0.00     772     55.8
 274   11:40   54.2    32    6.0    18     10.7    849     0.00     775     56.4
 274   11:50   55.0    31    3.5    32      7.9    849     0.00     775     57.3
 274   12:00   55.5    31    2.9   340      8.3    848     0.00     774     58.4
 274   12:10   55.6    30    7.9    57     12.3    848     0.00     770     59.4
 274   12:20   55.5    30    3.9    53      9.6    848     0.00     766     60.3
 274   12:30   55.4    30    5.0     8     10.1    848     0.00     759     61.1
 274   12:40   55.2    30    4.3    23     10.5    848     0.00     750     61.9
 274   12:50   55.8    30    6.9   359     11.6    848     0.00     742     62.6
 274   13:00   56.2    29    6.5    57     16.1    848     0.00     731     63.3
 274   13:10   56.2    29    6.7    41     15.2    848     0.00     718     63.8
 274   13:20   56.1    28    4.4   350      8.0    848     0.00     704     64.2
 274   13:30   57.1    27    4.2    50     17.8    848     0.00     690     64.7
 274   13:40   57.8    26    9.3    10     14.5    848     0.00     669     65.1
 274   13:50   57.3    26    5.4   330     12.1    847     0.00     652     65.4
 274   14:00   57.3    26    7.5   350     13.4    848     0.00     631     65.7
 274   14:10   57.5    25    6.6     0     11.8    848     0.00     608     65.9
 274   14:20   58.1    25    6.5     9     11.5    847     0.00     585     66.0
 274   14:30   58.2    24    6.2    32     10.9    847     0.00     560     66.1
 274   14:40   58.3    23    5.2    30     10.2    847     0.00     534     66.1
 274   14:50   58.5    22    4.9    22     10.4    847     0.00     507     66.1
 274   15:00   58.7    23    6.6    18     11.5    847     0.00     478     66.0
 274   15:10   58.6    23    4.7    22     10.8    847     0.00     447     65.9
 274   15:20   58.8    23    6.3    13     10.4    847     0.00     418     65.8
 274   15:30   58.8    23    5.5    38     10.5    847     0.00     387     65.6
 274   15:40   59.2    23    5.4    29     10.8    847     0.00     355     65.4
 274   15:50   59.1    22    4.4    12      8.6    847     0.00     323     65.1
 274   16:00   59.1    22    4.0    81      7.5    847     0.00     290     64.8
 274   16:10   59.0    21    4.5    32      8.8    847     0.00     257     64.4
 274   16:20   58.5    20    4.7     7      7.5    847     0.00     225     64.0
 274   16:30   58.3    21    3.8     7      7.0    847     0.00     193     63.7
 274   16:40   58.4    21    3.3    43      6.4    847     0.00     157     63.4
 274   16:50   58.2    22    3.0    23      6.5    848     0.00     108     63.0
 274   17:00   57.9    22    2.8    11      4.7    848     0.00      73     62.8
 274   17:10   57.8    22    2.2    19      3.6    848     0.00      34     62.5
 274   17:20   56.2    25    3.2     8      3.9    848     0.00      11     62.2

Return to Carson Sink graphs page.


Western Regional Climate Center,wrcc@dri.edu